createdAt,value
2023-02-26T00:00:15.353Z,0.40
2023-02-26T00:02:43.316Z,0.40
2023-02-26T00:10:07.476Z,0.30
2023-02-26T00:19:56.954Z,0.30
2023-02-26T00:37:17.215Z,0.20
2023-02-26T00:39:51.594Z,0.20
2023-02-26T00:47:50.735Z,0.20
2023-02-26T00:50:20.764Z,0.10
2023-02-26T00:53:08.426Z,0.10
2023-02-26T01:08:02.393Z,-0.10
2023-02-26T01:15:24.958Z,-0.20
2023-02-26T01:18:18.624Z,-0.20
2023-02-26T01:20:51.277Z,-0.20
2023-02-26T01:23:26.456Z,-0.30
2023-02-26T01:26:10.935Z,-0.40
2023-02-26T01:31:15.408Z,-0.40
2023-02-26T01:33:48.651Z,-0.40
2023-02-26T01:36:23.476Z,-0.40
2023-02-26T01:39:06.689Z,-0.40
2023-02-26T01:41:45.104Z,-0.40
2023-02-26T01:44:34.216Z,-0.40
2023-02-26T01:47:18.219Z,-0.50
2023-02-26T01:52:30.949Z,-0.50
2023-02-26T01:57:25.557Z,-0.50
2023-02-26T01:59:54.130Z,-0.60
2023-02-26T02:02:23.474Z,-0.60
2023-02-26T02:07:19.354Z,-0.70
2023-02-26T02:12:38.326Z,-0.70
2023-02-26T02:15:36.122Z,-0.70
2023-02-26T02:18:20.837Z,-0.80
2023-02-26T02:23:26.401Z,-0.80
2023-02-26T02:28:51.389Z,-0.90
2023-02-26T02:31:24.570Z,-0.90
2023-02-26T02:34:12.278Z,-0.90
2023-02-26T02:36:45.145Z,-0.90
2023-02-26T02:39:28.448Z,-0.90
2023-02-26T02:42:09.660Z,-0.90
2023-02-26T02:44:41.215Z,-0.90
2023-02-26T02:47:10.804Z,-0.90
2023-02-26T02:49:43.866Z,-0.90
2023-02-26T02:52:40.510Z,-0.90
2023-02-26T02:55:26.490Z,-1.00
2023-02-26T02:58:02.226Z,-1.00
2023-02-26T03:00:33.043Z,-1.00
2023-02-26T03:03:20.141Z,-1.00
2023-02-26T03:08:19.864Z,-1.10
2023-02-26T03:13:19.897Z,-1.10
2023-02-26T03:16:15.397Z,-1.10
2023-02-26T03:19:02.538Z,-1.10
2023-02-26T03:24:07.769Z,-1.10
2023-02-26T03:26:53.081Z,-1.20
2023-02-26T03:29:33.575Z,-1.20
2023-02-26T03:32:50.336Z,-1.20
2023-02-26T03:35:30.149Z,-1.20
2023-02-26T03:38:01.978Z,-1.20
2023-02-26T03:40:41.679Z,-1.30
2023-02-26T03:43:18.047Z,-1.20
2023-02-26T03:45:48.882Z,-1.30
2023-02-26T03:48:20.560Z,-1.20
2023-02-26T03:50:51.249Z,-1.30
2023-02-26T03:54:04.326Z,-1.30
2023-02-26T03:56:40.259Z,-1.20
2023-02-26T04:01:51.489Z,-1.20
2023-02-26T04:04:33.488Z,-1.20
2023-02-26T04:07:01.037Z,-1.20
2023-02-26T04:11:57.226Z,-1.20
2023-02-26T05:08:24.271Z,-1.80
2023-02-26T05:10:52.249Z,-1.80
2023-02-26T05:13:20.216Z,-1.80
2023-02-26T07:40:56.604Z,-0.70
2023-02-26T07:43:24.572Z,-0.60
2023-02-26T07:45:52.170Z,-0.60
2023-02-26T08:30:05.582Z,-0.10
2023-02-26T09:02:12.616Z,0.00
2023-02-26T09:39:06.824Z,0.90
2023-02-26T09:41:40.038Z,0.90
2023-02-26T09:44:15.759Z,0.90
2023-02-26T09:47:04.769Z,1.00
2023-02-26T09:49:46.655Z,1.10
2023-02-26T09:52:18.790Z,1.20
2023-02-26T09:54:52.263Z,1.20
2023-02-26T09:57:36.074Z,1.10
2023-02-26T10:00:19.104Z,1.20
2023-02-26T10:03:16.784Z,1.30
2023-02-26T10:06:02.471Z,1.30
2023-02-26T10:08:39.127Z,1.50
2023-02-26T10:11:18.805Z,1.50
2023-02-26T10:13:57.501Z,1.60
2023-02-26T10:16:30.299Z,1.70
2023-02-26T10:19:10.964Z,1.80
2023-02-26T10:24:15.732Z,1.90
2023-02-26T10:26:51.281Z,2.00
2023-02-26T10:32:00.659Z,2.10
2023-02-26T10:34:44.347Z,2.20
2023-02-26T10:37:37.506Z,2.20
2023-02-26T10:40:16.888Z,2.30
2023-02-26T10:45:40.270Z,2.00
2023-02-26T10:50:35.968Z,1.90
2023-02-26T10:55:44.586Z,1.80
2023-02-26T10:58:17.953Z,1.80
2023-02-26T11:00:53.613Z,1.90
2023-02-26T11:03:32.058Z,1.80
2023-02-26T11:08:30.789Z,1.80
2023-02-26T11:11:00.114Z,1.90
2023-02-26T11:13:30.529Z,1.90
2023-02-26T11:16:00.657Z,1.90
2023-02-26T11:18:36.471Z,2.00
2023-02-26T11:21:05.972Z,2.00
2023-02-26T11:23:33.653Z,2.00
2023-02-26T11:26:08.572Z,2.10
2023-02-26T11:28:42.352Z,2.00
2023-02-26T11:31:11.349Z,2.00
2023-02-26T11:33:40.732Z,2.00
2023-02-26T11:36:15.920Z,2.00
2023-02-26T11:38:46.495Z,2.00
2023-02-26T11:41:14.094Z,2.00
2023-02-26T11:43:45.399Z,2.00
2023-02-26T11:46:13.799Z,2.10
2023-02-26T11:48:47.571Z,2.20
2023-02-26T11:51:19.286Z,2.30
2023-02-26T11:53:57.275Z,2.40
2023-02-26T11:58:55.450Z,2.60
2023-02-26T12:01:28.073Z,2.70
2023-02-26T12:03:59.823Z,2.80
2023-02-26T12:11:36.458Z,2.80
2023-02-26T12:16:43.904Z,3.00
2023-02-26T12:19:31.568Z,3.00
2023-02-26T12:24:51.194Z,3.10
2023-02-26T12:27:33.531Z,3.10
2023-02-26T12:33:01.695Z,3.10
2023-02-26T12:35:43.825Z,3.10
2023-02-26T12:38:26.461Z,2.90
2023-02-26T12:41:17.152Z,2.60
2023-02-26T12:43:52.648Z,2.40
2023-02-26T12:46:40.912Z,2.30
2023-02-26T12:49:17.330Z,2.20
2023-02-26T12:57:11.476Z,2.10
2023-02-26T13:00:12.809Z,2.20
2023-02-26T13:02:45.182Z,2.40
2023-02-26T13:05:35.431Z,2.50
2023-02-26T13:08:20.560Z,2.70
2023-02-26T13:11:09.074Z,2.80
2023-02-26T13:13:41.723Z,2.80
2023-02-26T13:16:11.694Z,2.90
2023-02-26T13:21:24.950Z,3.00
2023-02-26T13:28:59.535Z,3.10
2023-02-26T13:31:40.742Z,3.20
2023-02-26T13:34:41.261Z,3.20
2023-02-26T13:37:23.592Z,3.00
2023-02-26T13:40:25.222Z,3.00
2023-02-26T13:43:06.363Z,2.80
2023-02-26T13:48:37.435Z,2.70
2023-02-26T13:53:41.262Z,2.50
2023-02-26T13:56:13.259Z,2.50
2023-02-26T13:58:42.457Z,2.40
2023-02-26T14:03:44.860Z,2.30
2023-02-26T14:06:37.772Z,2.10
2023-02-26T14:09:26.569Z,2.10
2023-02-26T14:12:04.021Z,2.10
2023-02-26T14:14:40.665Z,2.10
2023-02-26T14:19:45.351Z,2.30
2023-02-26T14:22:25.815Z,2.40
2023-02-26T14:24:58.256Z,2.40
2023-02-26T14:27:36.316Z,2.40
2023-02-26T14:30:09.293Z,2.30
2023-02-26T14:35:11.881Z,2.20
2023-02-26T14:37:40.514Z,2.20
2023-02-26T14:40:20.674Z,2.30
2023-02-26T14:42:51.759Z,2.50
2023-02-26T14:45:41.438Z,2.50
2023-02-26T14:48:14.640Z,2.60
2023-02-26T14:51:10.458Z,2.60
2023-02-26T14:54:14.632Z,2.40
2023-02-26T14:56:50.516Z,2.20
2023-02-26T14:59:38.608Z,2.00
2023-02-26T15:02:54.526Z,1.90
2023-02-26T15:05:39.640Z,1.80
2023-02-26T15:13:21.625Z,1.70
2023-02-26T15:16:05.912Z,1.70
2023-02-26T15:18:50.545Z,1.70
2023-02-26T15:21:53.081Z,1.70
2023-02-26T15:26:52.877Z,1.60
2023-02-26T15:29:30.641Z,1.60
2023-02-26T15:32:05.680Z,1.50
2023-02-26T15:41:57.478Z,1.30
2023-02-26T15:44:30.321Z,1.30
2023-02-26T15:47:02.102Z,1.20
2023-02-26T15:51:58.142Z,1.20
2023-02-26T15:54:33.559Z,1.20
2023-02-26T15:57:02.406Z,1.20
2023-02-26T15:59:31.414Z,1.20
2023-02-26T16:06:55.870Z,0.90
2023-02-26T16:09:30.962Z,0.80
2023-02-26T16:12:09.084Z,0.80
2023-02-26T16:14:42.894Z,0.70
2023-02-26T16:17:14.684Z,0.70
2023-02-26T16:19:48.298Z,0.70
2023-02-26T16:22:20.182Z,0.70
2023-02-26T16:24:55.621Z,0.70
2023-02-26T16:27:26.992Z,0.70
2023-02-26T16:29:57.357Z,0.70
2023-02-26T16:32:26.691Z,0.70
2023-02-26T16:34:56.299Z,0.70
2023-02-26T16:37:28.931Z,0.60
2023-02-26T16:40:12.097Z,0.50
2023-02-26T16:42:50.591Z,0.50
2023-02-26T16:45:37.720Z,0.50
2023-02-26T16:48:12.364Z,0.50
2023-02-26T16:53:15.506Z,0.40
2023-02-26T16:55:47.395Z,0.40
2023-02-26T16:58:16.046Z,0.40
2023-02-26T17:00:50.600Z,0.40
2023-02-26T17:03:23.822Z,0.50
2023-02-26T17:06:01.732Z,0.50
2023-02-26T17:08:42.066Z,0.60
2023-02-26T17:11:18.194Z,0.50
2023-02-26T17:16:14.014Z,0.60
2023-02-26T17:23:38.647Z,0.70
2023-02-26T17:28:40.618Z,0.60
2023-02-26T17:36:04.435Z,0.60
2023-02-26T17:48:23.614Z,0.50
2023-02-26T17:50:54.765Z,0.50
2023-02-26T17:53:23.805Z,0.50
2023-02-26T17:55:53.410Z,0.50
2023-02-26T17:58:28.342Z,0.40
2023-02-26T18:05:51.534Z,0.30
2023-02-26T18:08:25.979Z,0.40
2023-02-26T18:10:53.996Z,0.40
2023-02-26T18:13:21.697Z,0.50
2023-02-26T18:15:50.066Z,0.50
2023-02-26T18:18:17.931Z,0.50
2023-02-26T18:25:43.482Z,0.50
2023-02-26T18:28:21.852Z,0.50
2023-02-26T18:35:50.143Z,0.50
2023-02-26T18:38:20.245Z,0.50
2023-02-26T18:40:48.107Z,0.50
2023-02-26T18:45:44.444Z,0.50
2023-02-26T18:48:13.893Z,0.60
2023-02-26T19:07:54.737Z,0.50
2023-02-26T19:20:13.698Z,0.40
2023-02-26T19:27:37.466Z,0.40
2023-02-26T19:30:05.720Z,0.40
2023-02-26T21:10:51.928Z,0.00
2023-02-26T22:12:17.282Z,-0.40
2023-02-26T23:16:11.234Z,-0.80
2023-02-26T23:21:08.197Z,-0.80
